createdAt,value
2019-03-11T00:02:24.959Z,94768.84
2019-03-11T00:04:55.938Z,94767.80
2019-03-11T00:07:27.001Z,94767.80
2019-03-11T00:09:58.072Z,94755.12
2019-03-11T00:12:29.148Z,94740.27
2019-03-11T00:15:00.661Z,94740.74
2019-03-11T00:17:31.954Z,94740.83
2019-03-11T00:20:04.248Z,94739.17
2019-03-11T00:22:35.258Z,94742.16
2019-03-11T00:25:07.220Z,94739.22
2019-03-11T00:27:38.869Z,94740.52
2019-03-11T00:30:10.826Z,94739.52
2019-03-11T00:32:42.170Z,94734.37
2019-03-11T00:35:13.558Z,94742.15
2019-03-11T00:37:45.189Z,94735.59
2019-03-11T00:40:16.554Z,94740.64
2019-03-11T00:42:47.894Z,94743.38
2019-03-11T00:45:19.388Z,94754.48
2019-03-11T00:48:01.056Z,94745.31
2019-03-11T00:50:23.931Z,94746.23
2019-03-11T00:52:55.323Z,94748.91
2019-03-11T00:55:26.732Z,94746.94
2019-03-11T00:57:58.102Z,94748.96
2019-03-11T01:00:32.176Z,94749.16
2019-03-11T01:03:03.605Z,94752.09
2019-03-11T01:05:34.912Z,94742.77
2019-03-11T01:08:06.097Z,94744.91
2019-03-11T01:10:37.141Z,94746.05
2019-03-11T01:13:08.418Z,94733.76
2019-03-11T01:15:39.470Z,94732.25
2019-03-11T01:18:10.617Z,94731.13
2019-03-11T01:20:42.792Z,94734.72
2019-03-11T01:23:13.877Z,94725.98
2019-03-11T01:25:45.172Z,94721.39
2019-03-11T01:28:16.552Z,94725.59
2019-03-11T01:30:47.574Z,94721.69
2019-03-11T01:33:18.753Z,94717.72
2019-03-11T01:35:49.992Z,94723.97
2019-03-11T01:38:20.905Z,94717.61
2019-03-11T01:40:52.019Z,94721.05
2019-03-11T01:43:23.354Z,94722.89
2019-03-11T01:45:54.687Z,94730.84
2019-03-11T01:48:26.027Z,94735.06
2019-03-11T01:50:56.943Z,94730.34
2019-03-11T01:53:27.870Z,94730.70
2019-03-11T01:56:00.021Z,94721.69
2019-03-11T01:58:31.356Z,94724.16
2019-03-11T02:01:02.413Z,94719.42
2019-03-11T02:03:34.088Z,94722.19
2019-03-11T02:06:05.503Z,94721.75
2019-03-11T02:08:36.559Z,94727.83
2019-03-11T02:11:08.170Z,94724.91
2019-03-11T02:13:39.383Z,94727.37
2019-03-11T02:16:10.880Z,94726.74
2019-03-11T02:18:41.950Z,94730.69
2019-03-11T02:21:13.367Z,94727.89
2019-03-11T02:23:44.901Z,94732.30
2019-03-11T02:26:16.303Z,94731.31
2019-03-11T02:28:47.678Z,94734.92
2019-03-11T02:31:19.453Z,94734.08
2019-03-11T02:33:50.925Z,94724.14
2019-03-11T02:36:22.498Z,94729.84
2019-03-11T02:38:54.222Z,94731.34
2019-03-11T02:41:25.656Z,94731.34
2019-03-11T02:43:57.399Z,94722.05
2019-03-11T02:46:28.949Z,94723.34
2019-03-11T02:49:00.435Z,94715.84
2019-03-11T02:51:32.159Z,94715.18
2019-03-11T02:54:03.629Z,94716.32
2019-03-11T02:56:35.249Z,94726.77
2019-03-11T02:59:06.707Z,94733.27
2019-03-11T03:01:52.169Z,94730.83
2019-03-11T03:04:31.686Z,94734.24
2019-03-11T03:07:03.182Z,94742.22
2019-03-11T03:09:34.735Z,94742.56
2019-03-11T03:12:06.399Z,94748.94
2019-03-11T03:14:37.989Z,94755.62
2019-03-11T03:17:09.215Z,94755.45
2019-03-11T03:19:40.924Z,94753.99
2019-03-11T03:22:12.467Z,94755.31
2019-03-11T03:24:43.919Z,94763.73
2019-03-11T03:27:15.465Z,94760.33
2019-03-11T03:29:47.069Z,94759.84
2019-03-11T03:32:18.616Z,94764.56
2019-03-11T03:34:50.297Z,94766.52
2019-03-11T03:37:21.502Z,94762.30
2019-03-11T03:39:52.903Z,94768.33
2019-03-11T03:42:24.472Z,94771.91
2019-03-11T03:45:21.849Z,94776.00
2019-03-11T03:47:53.429Z,94785.77
2019-03-11T03:50:25.132Z,94784.31
2019-03-11T03:52:56.733Z,94780.89
2019-03-11T03:55:28.350Z,94783.67
2019-03-11T03:57:59.618Z,94787.41
2019-03-11T04:00:31.476Z,94790.68
2019-03-11T04:03:03.148Z,94786.25
2019-03-11T04:05:34.815Z,94791.91
2019-03-11T04:08:06.519Z,94792.89
2019-03-11T04:10:38.218Z,94800.55
2019-03-11T04:13:10.001Z,94810.50
2019-03-11T04:15:42.587Z,94817.98
2019-03-11T04:18:14.240Z,94817.98
2019-03-11T04:20:45.862Z,94823.47
2019-03-11T04:23:17.517Z,94823.48
2019-03-11T04:25:49.290Z,94824.27
2019-03-11T04:28:20.833Z,94822.16
2019-03-11T04:30:52.312Z,94826.73
2019-03-11T04:33:23.903Z,94830.63
2019-03-11T04:35:55.231Z,94832.72
2019-03-11T04:38:26.836Z,94837.47
2019-03-11T04:40:58.474Z,94830.92
2019-03-11T04:43:29.948Z,94836.62
2019-03-11T04:46:01.461Z,94838.25
2019-03-11T04:48:33.007Z,94838.14
2019-03-11T04:51:04.567Z,94838.14
2019-03-11T04:53:35.986Z,94836.85
2019-03-11T04:56:07.207Z,94839.97
2019-03-11T04:58:38.853Z,94831.98
2019-03-11T05:01:10.405Z,94830.41
2019-03-11T05:03:41.767Z,94830.39
2019-03-11T05:06:13.020Z,94830.39
2019-03-11T05:08:44.806Z,94825.80
2019-03-11T05:11:16.475Z,94841.60
2019-03-11T05:13:48.217Z,94828.59
2019-03-11T05:16:19.892Z,94834.13
2019-03-11T05:18:51.442Z,94827.65
2019-03-11T05:21:23.058Z,94829.77
2019-03-11T05:23:54.908Z,94829.75
2019-03-11T05:26:27.089Z,94821.61
2019-03-11T05:28:58.392Z,94820.49
2019-03-11T05:31:30.119Z,94818.06
2019-03-11T05:34:01.729Z,94805.98
2019-03-11T05:36:33.169Z,94817.45
2019-03-11T05:39:05.680Z,94814.98
2019-03-11T05:41:37.377Z,94817.13
2019-03-11T05:44:09.079Z,94813.53
2019-03-11T05:46:40.643Z,94818.27
2019-03-11T05:49:12.046Z,94816.11
2019-03-11T05:51:43.792Z,94813.50
2019-03-11T05:54:15.339Z,94813.45
2019-03-11T05:56:46.694Z,94819.63
2019-03-11T05:59:18.278Z,94812.20
2019-03-11T06:01:49.748Z,94811.28
2019-03-11T06:04:21.284Z,94814.88
2019-03-11T06:06:53.160Z,94814.20
2019-03-11T06:09:24.349Z,94822.59
2019-03-11T06:11:55.769Z,94818.75
2019-03-11T06:14:27.067Z,94819.41
2019-03-11T06:16:58.442Z,94824.00
2019-03-11T06:19:29.676Z,94823.50
2019-03-11T06:22:10.607Z,94823.87
2019-03-11T06:24:41.767Z,94827.69
2019-03-11T06:27:12.997Z,94830.29
2019-03-11T06:29:45.238Z,94828.23
2019-03-11T06:32:16.336Z,94828.23
2019-03-11T06:34:47.558Z,94837.56
2019-03-11T06:37:18.989Z,94832.25
2019-03-11T06:39:50.196Z,94834.43
2019-03-11T06:42:21.476Z,94829.79
2019-03-11T06:44:52.430Z,94824.41
2019-03-11T06:47:23.617Z,94827.92
2019-03-11T06:49:54.660Z,94823.48
2019-03-11T06:52:25.616Z,94813.92
2019-03-11T06:54:58.095Z,94813.27
2019-03-11T06:57:29.442Z,94804.81
2019-03-11T07:00:01.784Z,94801.32
2019-03-11T07:02:32.936Z,94797.97
2019-03-11T07:05:04.245Z,94800.50
2019-03-11T07:07:35.610Z,94797.13
2019-03-11T07:10:07.800Z,94792.80
2019-03-11T07:12:39.040Z,94787.75
2019-03-11T07:15:10.989Z,94783.38
2019-03-11T07:17:42.514Z,94783.38
2019-03-11T07:20:14.001Z,94782.08
2019-03-11T07:22:45.490Z,94763.58
2019-03-11T07:25:16.904Z,94769.66
2019-03-11T07:27:48.263Z,94765.41
2019-03-11T07:30:19.777Z,94761.84
2019-03-11T07:32:53.144Z,94759.51
2019-03-11T07:35:24.689Z,94753.72
2019-03-11T07:37:56.069Z,94748.56
2019-03-11T07:40:30.077Z,94753.69
2019-03-11T07:43:00.723Z,94749.69
2019-03-11T07:45:32.113Z,94750.59
2019-03-11T07:48:03.135Z,94746.65
2019-03-11T07:50:34.496Z,94737.67
2019-03-11T07:53:06.030Z,94740.84
2019-03-11T07:55:38.483Z,94741.34
2019-03-11T07:58:09.784Z,94739.50
2019-03-11T08:00:40.967Z,94736.59
2019-03-11T08:03:12.486Z,94733.83
2019-03-11T08:05:43.902Z,94734.57
2019-03-11T08:08:15.343Z,94725.23
2019-03-11T08:10:46.873Z,94728.02
2019-03-11T08:13:18.232Z,94731.05
2019-03-11T08:15:49.775Z,94726.77
2019-03-11T08:18:21.241Z,94723.00
2019-03-11T08:20:52.253Z,94716.63
2019-03-11T08:23:23.712Z,94714.14
2019-03-11T08:25:55.080Z,94714.53
2019-03-11T08:28:26.313Z,94703.34
2019-03-11T08:30:57.648Z,94698.91
2019-03-11T08:33:28.944Z,94697.52
2019-03-11T08:36:00.325Z,94695.30
2019-03-11T08:38:31.590Z,94693.95
2019-03-11T08:41:02.879Z,94683.25
2019-03-11T08:43:34.223Z,94678.14
2019-03-11T08:46:05.600Z,94681.81
2019-03-11T08:48:36.776Z,94681.81
2019-03-11T08:51:08.242Z,94676.00
2019-03-11T08:53:39.277Z,94663.20
2019-03-11T08:56:10.429Z,94661.81
2019-03-11T08:58:41.806Z,94661.81
2019-03-11T09:01:12.987Z,94662.48
2019-03-11T09:03:44.196Z,94658.23
2019-03-11T09:06:15.290Z,94653.11
2019-03-11T09:08:46.479Z,94653.11
2019-03-11T09:11:17.753Z,94642.05
2019-03-11T09:13:49.405Z,94633.86
2019-03-11T09:16:20.998Z,94620.49
2019-03-11T09:18:52.418Z,94625.44
2019-03-11T09:21:23.688Z,94619.87
2019-03-11T09:23:54.953Z,94609.64
2019-03-11T09:26:26.443Z,94618.28
2019-03-11T09:28:57.514Z,94621.65
2019-03-11T09:31:28.782Z,94620.30
2019-03-11T09:34:00.091Z,94620.71
2019-03-11T09:36:31.359Z,94613.70
2019-03-11T09:39:02.720Z,94610.45
2019-03-11T09:41:35.564Z,94608.02
2019-03-11T09:44:06.856Z,94609.24
2019-03-11T09:46:38.150Z,94601.89
2019-03-11T09:49:09.578Z,94601.89
2019-03-11T09:51:40.945Z,94605.30
2019-03-11T09:54:12.357Z,94601.16
2019-03-11T09:56:44.205Z,94603.36
2019-03-11T09:59:15.690Z,94607.00
2019-03-11T10:01:47.044Z,94607.00
2019-03-11T10:04:18.378Z,94605.39
2019-03-11T10:06:49.763Z,94605.70
2019-03-11T10:09:22.473Z,94599.00
2019-03-11T10:11:53.902Z,94609.55
2019-03-11T10:14:25.352Z,94601.56
2019-03-11T10:16:56.996Z,94591.33
2019-03-11T10:19:28.338Z,94591.33
2019-03-11T10:21:59.792Z,94589.73
2019-03-11T10:24:31.267Z,94588.36
2019-03-11T10:27:02.524Z,94591.41
2019-03-11T10:29:33.902Z,94591.41
2019-03-11T10:32:05.244Z,94582.45
2019-03-11T10:34:36.740Z,94582.45
2019-03-11T10:37:08.030Z,94588.31
2019-03-11T10:39:39.407Z,94582.93
2019-03-11T10:42:10.489Z,94588.16
2019-03-11T10:44:41.775Z,94575.16
2019-03-11T10:47:12.856Z,94583.78
2019-03-11T10:49:43.983Z,94579.36
2019-03-11T10:52:15.288Z,94576.70
2019-03-11T10:54:46.779Z,94573.15
2019-03-11T10:57:18.171Z,94576.41
2019-03-11T10:59:49.496Z,94575.20
2019-03-11T11:02:20.863Z,94573.87
2019-03-11T11:04:52.197Z,94568.70
2019-03-11T11:07:23.709Z,94555.41
2019-03-11T11:09:54.994Z,94555.41
2019-03-11T11:12:26.224Z,94541.96
2019-03-11T11:14:57.676Z,94541.96
2019-03-11T11:17:28.979Z,94549.36
2019-03-11T11:20:03.650Z,94535.59
2019-03-11T11:22:35.054Z,94536.40
2019-03-11T11:25:06.839Z,94537.59
2019-03-11T11:27:38.327Z,94529.97
2019-03-11T11:30:12.760Z,94525.69
2019-03-11T11:32:44.068Z,94523.58
2019-03-11T11:35:17.044Z,94514.41
2019-03-11T11:37:48.625Z,94498.91
2019-03-11T11:40:24.258Z,94507.92
2019-03-11T11:42:55.927Z,94507.30
2019-03-11T11:45:27.268Z,94498.25
2019-03-11T11:47:59.763Z,94494.67
2019-03-11T11:50:31.115Z,94487.30
2019-03-11T11:53:02.074Z,94487.14
2019-03-11T11:55:33.242Z,94480.48
2019-03-11T11:58:04.201Z,94466.80
2019-03-11T12:00:36.173Z,94465.48
2019-03-11T12:03:07.235Z,94456.41
2019-03-11T12:05:38.223Z,94451.59
2019-03-11T12:08:09.359Z,94446.44
2019-03-11T12:10:40.433Z,94440.30
2019-03-11T12:13:11.609Z,94440.62
2019-03-11T12:15:42.869Z,94432.90
2019-03-11T12:18:15.698Z,94429.32
2019-03-11T12:20:47.110Z,94425.16
2019-03-11T12:23:18.759Z,94428.56
2019-03-11T12:25:49.835Z,94422.77
2019-03-11T12:28:20.884Z,94412.30
2019-03-11T12:30:52.044Z,94418.64
2019-03-11T12:33:23.317Z,94409.02
2019-03-11T12:35:54.540Z,94411.72
2019-03-11T12:38:25.803Z,94403.04
2019-03-11T12:40:56.983Z,94398.87
2019-03-11T12:43:28.268Z,94395.45
2019-03-11T12:45:59.271Z,94390.42
2019-03-11T12:48:30.688Z,94383.66
2019-03-11T12:51:01.779Z,94391.49
2019-03-11T12:53:33.297Z,94384.45
2019-03-11T12:56:05.795Z,94384.56
2019-03-11T12:58:41.401Z,94384.66
2019-03-11T13:01:10.010Z,94381.80
2019-03-11T13:03:41.409Z,94372.12
2019-03-11T13:06:13.050Z,94371.98
2019-03-11T13:08:44.306Z,94362.94
2019-03-11T13:11:15.632Z,94358.11
2019-03-11T13:13:46.832Z,94350.38
2019-03-11T13:16:18.209Z,94352.16
2019-03-11T13:18:51.195Z,94349.16
2019-03-11T13:21:28.261Z,94347.39
2019-03-11T13:23:59.560Z,94339.05
2019-03-11T13:26:30.862Z,94335.69
2019-03-11T13:29:02.175Z,94338.79
2019-03-11T13:31:33.440Z,94336.02
2019-03-11T13:34:04.997Z,94331.79
2019-03-11T13:36:36.497Z,94328.98
2019-03-11T13:39:09.743Z,94323.64
2019-03-11T13:41:41.257Z,94323.82
2019-03-11T13:44:12.823Z,94322.56
2019-03-11T13:46:44.064Z,94319.97
2019-03-11T13:49:15.257Z,94312.80
2019-03-11T13:51:46.752Z,94318.32
2019-03-11T13:54:17.780Z,94318.32
2019-03-11T13:56:49.089Z,94306.94
2019-03-11T13:59:20.519Z,94306.94
2019-03-11T14:01:51.945Z,94290.98
2019-03-11T14:04:23.375Z,94298.42
2019-03-11T14:06:54.756Z,94298.42
2019-03-11T14:09:25.912Z,94305.59
2019-03-11T14:11:57.149Z,94305.08
2019-03-11T14:14:28.344Z,94301.38
2019-03-11T14:16:59.679Z,94308.10
2019-03-11T14:19:30.933Z,94300.28
2019-03-11T14:22:04.898Z,94293.86
2019-03-11T14:24:36.206Z,94299.67
2019-03-11T14:27:07.448Z,94296.82
2019-03-11T14:29:38.939Z,94296.42
2019-03-11T14:32:10.629Z,94289.51
2019-03-11T14:34:41.891Z,94282.84
2019-03-11T14:37:13.503Z,94281.05
2019-03-11T14:39:44.939Z,94278.80
2019-03-11T14:42:16.247Z,94280.55
2019-03-11T14:44:47.409Z,94288.97
2019-03-11T14:47:18.634Z,94287.19
2019-03-11T14:49:49.708Z,94291.84
2019-03-11T14:52:20.941Z,94291.56
2019-03-11T14:54:52.292Z,94291.38
2019-03-11T14:57:23.757Z,94284.63
2019-03-11T14:59:54.877Z,94294.55
2019-03-11T15:02:26.154Z,94298.64
2019-03-11T15:04:57.611Z,94293.20
2019-03-11T15:07:28.979Z,94301.38
2019-03-11T15:10:00.059Z,94307.30
2019-03-11T15:12:31.851Z,94301.08
2019-03-11T15:15:03.759Z,94311.36
2019-03-11T15:17:35.132Z,94312.55
2019-03-11T15:20:07.161Z,94311.95
2019-03-11T15:22:38.882Z,94312.43
2019-03-11T15:25:11.979Z,94312.55
2019-03-11T15:27:43.433Z,94310.23
2019-03-11T15:30:16.589Z,94317.88
2019-03-11T15:32:48.201Z,94313.73
2019-03-11T15:35:20.593Z,94310.99
2019-03-11T15:37:53.219Z,94306.26
2019-03-11T15:40:24.595Z,94313.78
2019-03-11T15:42:58.451Z,94302.69
2019-03-11T15:45:37.987Z,94299.72
2019-03-11T15:48:03.643Z,94300.09
2019-03-11T15:50:35.438Z,94300.09
2019-03-11T15:53:06.902Z,94309.70
2019-03-11T15:55:38.681Z,94314.32
2019-03-11T15:58:10.104Z,94319.04
2019-03-11T16:00:41.807Z,94323.94
2019-03-11T16:03:13.571Z,94331.59
2019-03-11T16:05:45.055Z,94325.73
2019-03-11T16:08:16.673Z,94329.64
2019-03-11T16:10:48.086Z,94333.89
2019-03-11T16:13:19.622Z,94323.47
2019-03-11T16:15:51.278Z,94330.64
2019-03-11T16:18:22.799Z,94327.55
2019-03-11T16:20:57.145Z,94325.91
2019-03-11T16:23:28.448Z,94329.97
2019-03-11T16:25:59.919Z,94333.23
2019-03-11T16:28:31.540Z,94326.53
2019-03-11T16:31:02.908Z,94345.20
2019-03-11T16:33:34.339Z,94348.27
2019-03-11T16:36:05.626Z,94345.27
2019-03-11T16:38:36.972Z,94339.23
2019-03-11T16:41:08.502Z,94342.95
2019-03-11T16:43:39.764Z,94348.94
2019-03-11T16:46:11.285Z,94357.41
2019-03-11T16:48:42.745Z,94362.47
2019-03-11T16:51:13.985Z,94353.38
2019-03-11T16:53:45.216Z,94353.16
2019-03-11T16:56:16.888Z,94363.45
2019-03-11T16:58:48.071Z,94349.39
2019-03-11T17:01:19.383Z,94349.39
2019-03-11T17:03:50.753Z,94362.89
2019-03-11T17:06:22.429Z,94361.17
2019-03-11T17:08:53.906Z,94362.89
2019-03-11T17:11:25.283Z,94366.38
2019-03-11T17:13:57.567Z,94384.46
2019-03-11T17:16:28.735Z,94383.69
2019-03-11T17:19:01.407Z,94389.41
2019-03-11T17:21:33.047Z,94379.31
2019-03-11T17:24:04.538Z,94383.23
2019-03-11T17:26:35.816Z,94385.05
2019-03-11T17:29:07.101Z,94377.69
2019-03-11T17:31:38.617Z,94391.74
2019-03-11T17:34:09.993Z,94395.60
2019-03-11T17:36:41.456Z,94369.77
2019-03-11T17:39:13.108Z,94385.19
2019-03-11T17:41:45.402Z,94378.84
2019-03-11T17:44:17.165Z,94391.64
2019-03-11T17:46:48.730Z,94388.73
2019-03-11T17:49:20.211Z,94390.13
2019-03-11T17:51:51.836Z,94400.18
2019-03-11T17:54:23.329Z,94399.28
2019-03-11T17:56:54.796Z,94389.73
2019-03-11T17:59:26.196Z,94384.56
2019-03-11T18:01:57.882Z,94397.20
2019-03-11T18:04:29.313Z,94387.72
2019-03-11T18:07:00.867Z,94390.13
2019-03-11T18:09:32.307Z,94398.53
2019-03-11T18:12:03.972Z,94403.80
2019-03-11T18:14:35.498Z,94412.32
2019-03-11T18:17:06.982Z,94421.33
2019-03-11T18:19:38.238Z,94413.22
2019-03-11T18:22:09.582Z,94418.67
2019-03-11T18:24:41.036Z,94416.62
2019-03-11T18:27:12.509Z,94418.28
2019-03-11T18:29:43.953Z,94417.44
2019-03-11T18:32:16.498Z,94413.16
2019-03-11T18:34:48.009Z,94420.95
2019-03-11T18:37:19.384Z,94427.64
2019-03-11T18:39:50.646Z,94428.35
2019-03-11T18:42:26.282Z,94448.34
2019-03-11T18:44:54.995Z,94447.53
2019-03-11T18:47:26.448Z,94433.48
2019-03-11T18:49:57.703Z,94427.09
2019-03-11T18:52:29.406Z,94449.83
2019-03-11T18:55:00.868Z,94448.83
2019-03-11T18:57:32.031Z,94443.17
2019-03-11T19:00:03.645Z,94450.56
2019-03-11T19:02:36.819Z,94447.16
2019-03-11T19:05:09.699Z,94449.49
2019-03-11T19:07:41.237Z,94449.23
2019-03-11T19:10:12.960Z,94438.14
2019-03-11T19:12:44.440Z,94443.66
2019-03-11T19:15:17.641Z,94438.22
2019-03-11T19:17:49.224Z,94430.77
2019-03-11T19:20:20.842Z,94421.89
2019-03-11T19:22:52.444Z,94430.94
2019-03-11T19:25:23.948Z,94435.67
2019-03-11T19:27:55.701Z,94429.65
2019-03-11T19:30:27.327Z,94426.25
2019-03-11T19:32:58.876Z,94426.83
2019-03-11T19:35:30.419Z,94426.28
2019-03-11T19:38:02.205Z,94424.25
2019-03-11T19:40:33.667Z,94419.67
2019-03-11T19:43:05.220Z,94421.66
2019-03-11T19:45:36.922Z,94422.73
2019-03-11T19:48:08.751Z,94424.30
2019-03-11T19:50:40.123Z,94414.98
2019-03-11T19:53:11.777Z,94422.05
2019-03-11T19:55:43.517Z,94420.91
2019-03-11T19:58:14.969Z,94421.23
2019-03-11T20:00:46.501Z,94412.11
2019-03-11T20:03:23.977Z,94411.38
2019-03-11T20:05:53.806Z,94412.11
2019-03-11T20:08:24.292Z,94405.94
2019-03-11T20:10:55.802Z,94409.34
2019-03-11T20:13:27.320Z,94408.36
2019-03-11T20:15:58.660Z,94408.45
2019-03-11T20:18:30.436Z,94405.05
2019-03-11T20:21:01.988Z,94398.94
2019-03-11T20:23:33.686Z,94404.44
2019-03-11T20:26:05.361Z,94395.25
2019-03-11T20:28:36.760Z,94393.22
2019-03-11T20:31:08.338Z,94390.08
2019-03-11T20:33:39.908Z,94400.72
2019-03-11T20:36:20.862Z,94399.09
2019-03-11T20:38:44.609Z,94396.89
2019-03-11T20:41:16.466Z,94410.97
2019-03-11T20:43:47.766Z,94400.89
2019-03-11T20:46:19.167Z,94415.06
2019-03-11T20:48:50.607Z,94415.67
2019-03-11T20:51:21.849Z,94417.77
2019-03-11T20:53:53.218Z,94421.45
2019-03-11T20:56:24.427Z,94422.33
2019-03-11T20:58:55.813Z,94427.42
2019-03-11T21:01:27.756Z,94406.69
2019-03-11T21:03:59.284Z,94419.12
2019-03-11T21:06:30.818Z,94422.73
2019-03-11T21:09:02.361Z,94420.47
2019-03-11T21:11:35.555Z,94419.06
2019-03-11T21:14:08.829Z,94409.11
2019-03-11T21:16:41.326Z,94402.56
2019-03-11T21:19:12.617Z,94414.01
2019-03-11T21:21:43.842Z,94424.41
2019-03-11T21:24:15.570Z,94421.61
2019-03-11T21:26:47.309Z,94430.20
2019-03-11T21:29:19.011Z,94429.86
2019-03-11T21:31:50.695Z,94429.66
2019-03-11T21:34:22.894Z,94438.08
2019-03-11T21:36:54.594Z,94440.81
2019-03-11T21:39:26.159Z,94429.86
2019-03-11T21:41:57.788Z,94439.44
2019-03-11T21:44:29.432Z,94449.59
2019-03-11T21:47:00.772Z,94436.09
2019-03-11T21:49:32.192Z,94440.47
2019-03-11T21:52:03.695Z,94448.08
2019-03-11T21:54:35.432Z,94442.91
2019-03-11T21:57:07.247Z,94440.42
2019-03-11T21:59:38.969Z,94435.84
2019-03-11T22:02:10.533Z,94434.74
2019-03-11T22:04:41.829Z,94450.91
2019-03-11T22:07:13.621Z,94445.98
2019-03-11T22:09:45.366Z,94464.48
2019-03-11T22:12:17.063Z,94462.33
2019-03-11T22:14:48.628Z,94460.23
2019-03-11T22:17:20.218Z,94458.03
2019-03-11T22:19:51.969Z,94463.58
2019-03-11T22:22:23.432Z,94462.47
2019-03-11T22:24:54.809Z,94448.46
2019-03-11T22:27:26.145Z,94451.90
2019-03-11T22:29:57.797Z,94448.61
2019-03-11T22:32:29.208Z,94448.00
2019-03-11T22:35:12.194Z,94442.59
2019-03-11T22:37:33.824Z,94443.88
2019-03-11T22:40:06.074Z,94437.00
2019-03-11T22:42:37.695Z,94442.59
2019-03-11T22:45:10.245Z,94448.23
2019-03-11T22:47:41.631Z,94449.32
2019-03-11T22:50:13.083Z,94451.90
2019-03-11T22:52:44.735Z,94452.84
2019-03-11T22:55:17.088Z,94444.73
2019-03-11T22:57:48.911Z,94457.53
2019-03-11T23:00:32.646Z,94466.05
2019-03-11T23:03:06.945Z,94465.19
2019-03-11T23:05:56.513Z,94473.06
2019-03-11T23:08:13.119Z,94474.42
2019-03-11T23:10:44.834Z,94463.04
2019-03-11T23:13:16.591Z,94463.94
2019-03-11T23:15:48.172Z,94476.14
2019-03-11T23:18:19.593Z,94485.17
2019-03-11T23:20:51.029Z,94487.65
2019-03-11T23:23:22.242Z,94491.86
2019-03-11T23:25:53.618Z,94481.50
2019-03-11T23:28:25.355Z,94477.63
2019-03-11T23:30:57.196Z,94476.78
2019-03-11T23:33:28.731Z,94493.17
2019-03-11T23:36:00.072Z,94485.53
2019-03-11T23:38:31.471Z,94497.66
2019-03-11T23:41:02.914Z,94497.29
2019-03-11T23:43:34.446Z,94482.83
2019-03-11T23:46:05.772Z,94477.33
2019-03-11T23:48:37.053Z,94472.07
2019-03-11T23:51:08.270Z,94470.98
2019-03-11T23:53:39.571Z,94474.33
2019-03-11T23:56:10.973Z,94480.23
2019-03-11T23:58:42.196Z,94488.33
